sensor_id;sensor_type;location;lat;lon;timestamp;P1;durP1;ratioP1;P2;durP2;ratioP2
64075;SDS011;50327;51.328;12.324;2023-07-29T00:01:34;8.02;;;1.48;;
64075;SDS011;50327;51.328;12.324;2023-07-29T00:04:00;5.70;;;1.65;;
64075;SDS011;50327;51.328;12.324;2023-07-29T00:06:25;2.70;;;1.35;;
64075;SDS011;50327;51.328;12.324;2023-07-29T00:08:51;3.30;;;1.48;;
64075;SDS011;50327;51.328;12.324;2023-07-29T00:11:16;3.20;;;1.35;;
64075;SDS011;50327;51.328;12.324;2023-07-29T00:13:41;2.55;;;1.40;;
64075;SDS011;50327;51.328;12.324;2023-07-29T00:16:07;2.90;;;1.50;;
64075;SDS011;50327;51.328;12.324;2023-07-29T00:18:32;1.92;;;1.02;;
64075;SDS011;50327;51.328;12.324;2023-07-29T00:20:58;3.38;;;1.30;;
64075;SDS011;50327;51.328;12.324;2023-07-29T00:23:24;6.47;;;1.45;;
64075;SDS011;50327;51.328;12.324;2023-07-29T00:25:49;2.90;;;1.20;;
64075;SDS011;50327;51.328;12.324;2023-07-29T00:28:15;2.30;;;1.30;;
64075;SDS011;50327;51.328;12.324;2023-07-29T00:30:40;2.90;;;1.30;;
64075;SDS011;50327;51.328;12.324;2023-07-29T00:33:06;3.33;;;1.27;;
64075;SDS011;50327;51.328;12.324;2023-07-29T00:35:31;3.83;;;1.40;;
64075;SDS011;50327;51.328;12.324;2023-07-29T00:37:57;3.20;;;1.40;;
64075;SDS011;50327;51.328;12.324;2023-07-29T00:40:22;7.30;;;1.40;;
64075;SDS011;50327;51.328;12.324;2023-07-29T00:42:48;2.97;;;1.27;;
64075;SDS011;50327;51.328;12.324;2023-07-29T00:45:15;3.30;;;1.23;;
64075;SDS011;50327;51.328;12.324;2023-07-29T00:47:40;1.90;;;1.20;;
64075;SDS011;50327;51.328;12.324;2023-07-29T00:50:06;3.42;;;1.85;;
64075;SDS011;50327;51.328;12.324;2023-07-29T00:52:33;1.08;;;0.93;;
64075;SDS011;50327;51.328;12.324;2023-07-29T00:54:59;5.72;;;1.17;;
64075;SDS011;50327;51.328;12.324;2023-07-29T00:57:24;1.80;;;1.10;;
64075;SDS011;50327;51.328;12.324;2023-07-29T00:59:51;1.85;;;1.10;;
64075;SDS011;50327;51.328;12.324;2023-07-29T01:02:17;1.95;;;1.05;;
64075;SDS011;50327;51.328;12.324;2023-07-29T01:04:42;2.00;;;1.10;;
64075;SDS011;50327;51.328;12.324;2023-07-29T01:12:36;2.47;;;1.20;;
64075;SDS011;50327;51.328;12.324;2023-07-29T01:17:46;6.95;;;1.42;;
64075;SDS011;50327;51.328;12.324;2023-07-29T01:20:16;3.20;;;1.65;;
64075;SDS011;50327;51.328;12.324;2023-07-29T01:22:45;2.83;;;1.50;;
64075;SDS011;50327;51.328;12.324;2023-07-29T01:25:12;3.20;;;1.48;;
64075;SDS011;50327;51.328;12.324;2023-07-29T01:30:10;2.88;;;1.50;;
64075;SDS011;50327;51.328;12.324;2023-07-29T01:37:52;3.60;;;1.35;;
64075;SDS011;50327;51.328;12.324;2023-07-29T01:40:22;3.20;;;1.60;;
64075;SDS011;50327;51.328;12.324;2023-07-29T01:42:51;3.65;;;1.25;;
64075;SDS011;50327;51.328;12.324;2023-07-29T01:45:16;2.50;;;1.40;;
64075;SDS011;50327;51.328;12.324;2023-07-29T01:47:41;3.78;;;2.42;;
64075;SDS011;50327;51.328;12.324;2023-07-29T01:50:07;2.25;;;1.27;;
64075;SDS011;50327;51.328;12.324;2023-07-29T01:52:33;2.47;;;1.40;;
64075;SDS011;50327;51.328;12.324;2023-07-29T01:54:58;1.70;;;1.15;;
64075;SDS011;50327;51.328;12.324;2023-07-29T01:57:24;5.70;;;1.45;;
64075;SDS011;50327;51.328;12.324;2023-07-29T01:59:49;2.92;;;1.50;;
64075;SDS011;50327;51.328;12.324;2023-07-29T02:02:14;2.63;;;1.38;;
64075;SDS011;50327;51.328;12.324;2023-07-29T02:04:40;1.80;;;1.30;;
64075;SDS011;50327;51.328;12.324;2023-07-29T02:07:05;2.47;;;1.20;;
64075;SDS011;50327;51.328;12.324;2023-07-29T02:09:30;1.85;;;1.20;;
64075;SDS011;50327;51.328;12.324;2023-07-29T02:11:56;1.85;;;1.20;;
64075;SDS011;50327;51.328;12.324;2023-07-29T02:14:23;2.00;;;1.23;;
64075;SDS011;50327;51.328;12.324;2023-07-29T02:16:48;2.88;;;1.20;;
64075;SDS011;50327;51.328;12.324;2023-07-29T02:19:14;2.88;;;1.25;;
64075;SDS011;50327;51.328;12.324;2023-07-29T02:21:40;2.90;;;1.52;;
64075;SDS011;50327;51.328;12.324;2023-07-29T02:24:05;2.90;;;1.20;;
64075;SDS011;50327;51.328;12.324;2023-07-29T02:26:30;3.63;;;1.33;;
64075;SDS011;50327;51.328;12.324;2023-07-29T02:28:56;3.03;;;1.38;;
64075;SDS011;50327;51.328;12.324;2023-07-29T02:31:23;4.60;;;1.25;;
64075;SDS011;50327;51.328;12.324;2023-07-29T02:33:50;1.65;;;1.08;;
64075;SDS011;50327;51.328;12.324;2023-07-29T02:36:16;2.25;;;1.20;;
64075;SDS011;50327;51.328;12.324;2023-07-29T02:38:42;2.90;;;1.50;;
64075;SDS011;50327;51.328;12.324;2023-07-29T02:41:08;3.03;;;1.42;;
64075;SDS011;50327;51.328;12.324;2023-07-29T02:43:34;4.45;;;1.23;;
64075;SDS011;50327;51.328;12.324;2023-07-29T02:46:00;2.70;;;1.20;;
64075;SDS011;50327;51.328;12.324;2023-07-29T02:48:26;1.45;;;1.00;;
64075;SDS011;50327;51.328;12.324;2023-07-29T02:50:53;1.55;;;1.00;;
64075;SDS011;50327;51.328;12.324;2023-07-29T02:53:18;2.35;;;1.40;;
64075;SDS011;50327;51.328;12.324;2023-07-29T02:55:44;2.47;;;1.30;;
64075;SDS011;50327;51.328;12.324;2023-07-29T02:58:09;2.50;;;1.30;;
64075;SDS011;50327;51.328;12.324;2023-07-29T03:00:34;1.63;;;1.10;;
64075;SDS011;50327;51.328;12.324;2023-07-29T03:03:00;2.38;;;1.27;;
64075;SDS011;50327;51.328;12.324;2023-07-29T03:05:29;2.25;;;1.40;;
64075;SDS011;50327;51.328;12.324;2023-07-29T03:07:57;3.15;;;1.42;;
64075;SDS011;50327;51.328;12.324;2023-07-29T03:10:23;2.05;;;1.35;;
64075;SDS011;50327;51.328;12.324;2023-07-29T03:12:48;3.03;;;1.40;;
64075;SDS011;50327;51.328;12.324;2023-07-29T03:15:13;5.13;;;1.40;;
64075;SDS011;50327;51.328;12.324;2023-07-29T03:17:39;3.35;;;1.60;;
64075;SDS011;50327;51.328;12.324;2023-07-29T03:20:04;3.58;;;1.52;;
64075;SDS011;50327;51.328;12.324;2023-07-29T03:22:30;1.75;;;1.10;;
64075;SDS011;50327;51.328;12.324;2023-07-29T03:24:56;2.55;;;1.30;;
64075;SDS011;50327;51.328;12.324;2023-07-29T03:27:21;5.60;;;1.80;;
64075;SDS011;50327;51.328;12.324;2023-07-29T03:29:46;2.30;;;1.50;;
64075;SDS011;50327;51.328;12.324;2023-07-29T03:32:12;2.50;;;1.40;;
64075;SDS011;50327;51.328;12.324;2023-07-29T03:34:38;2.78;;;1.45;;
64075;SDS011;50327;51.328;12.324;2023-07-29T03:37:05;2.35;;;1.25;;
64075;SDS011;50327;51.328;12.324;2023-07-29T03:39:31;5.28;;;1.52;;
64075;SDS011;50327;51.328;12.324;2023-07-29T03:41:56;2.15;;;1.30;;
64075;SDS011;50327;51.328;12.324;2023-07-29T03:44:22;2.13;;;1.30;;
64075;SDS011;50327;51.328;12.324;2023-07-29T03:46:47;2.90;;;1.38;;
64075;SDS011;50327;51.328;12.324;2023-07-29T03:49:13;3.38;;;1.70;;
64075;SDS011;50327;51.328;12.324;2023-07-29T03:51:38;3.67;;;1.92;;
64075;SDS011;50327;51.328;12.324;2023-07-29T03:54:04;4.10;;;2.00;;
64075;SDS011;50327;51.328;12.324;2023-07-29T03:56:29;4.75;;;2.25;;
64075;SDS011;50327;51.328;12.324;2023-07-29T03:59:01;6.28;;;2.10;;
64075;SDS011;50327;51.328;12.324;2023-07-29T04:01:28;4.90;;;1.80;;
64075;SDS011;50327;51.328;12.324;2023-07-29T04:03:54;2.72;;;1.60;;
64075;SDS011;50327;51.328;12.324;2023-07-29T04:06:19;3.08;;;1.88;;
64075;SDS011;50327;51.328;12.324;2023-07-29T04:08:45;3.00;;;1.63;;
64075;SDS011;50327;51.328;12.324;2023-07-29T04:11:10;3.92;;;2.13;;
64075;SDS011;50327;51.328;12.324;2023-07-29T04:13:36;3.60;;;2.00;;
64075;SDS011;50327;51.328;12.324;2023-07-29T04:16:02;3.42;;;1.85;;
64075;SDS011;50327;51.328;12.324;2023-07-29T04:18:29;4.65;;;2.10;;
64075;SDS011;50327;51.328;12.324;2023-07-29T04:20:54;4.85;;;2.17;;
64075;SDS011;50327;51.328;12.324;2023-07-29T04:23:19;2.70;;;1.75;;
64075;SDS011;50327;51.328;12.324;2023-07-29T04:25:45;3.35;;;1.90;;
64075;SDS011;50327;51.328;12.324;2023-07-29T04:28:10;3.67;;;2.00;;
64075;SDS011;50327;51.328;12.324;2023-07-29T04:30:35;5.05;;;1.83;;
64075;SDS011;50327;51.328;12.324;2023-07-29T04:33:01;2.53;;;1.45;;
64075;SDS011;50327;51.328;12.324;2023-07-29T04:35:26;3.08;;;1.88;;
64075;SDS011;50327;51.328;12.324;2023-07-29T04:37:51;2.95;;;1.60;;
64075;SDS011;50327;51.328;12.324;2023-07-29T04:40:16;5.57;;;2.00;;
64075;SDS011;50327;51.328;12.324;2023-07-29T04:42:42;2.72;;;1.70;;
64075;SDS011;50327;51.328;12.324;2023-07-29T04:45:07;2.97;;;1.58;;
64075;SDS011;50327;51.328;12.324;2023-07-29T04:47:33;3.05;;;1.65;;
64075;SDS011;50327;51.328;12.324;2023-07-29T04:49:58;3.25;;;1.80;;
64075;SDS011;50327;51.328;12.324;2023-07-29T04:52:24;4.28;;;1.92;;
64075;SDS011;50327;51.328;12.324;2023-07-29T04:54:49;9.27;;;2.00;;
64075;SDS011;50327;51.328;12.324;2023-07-29T04:57:14;4.43;;;2.17;;
64075;SDS011;50327;51.328;12.324;2023-07-29T04:59:40;4.88;;;1.95;;
64075;SDS011;50327;51.328;12.324;2023-07-29T05:02:05;8.05;;;1.70;;
64075;SDS011;50327;51.328;12.324;2023-07-29T05:04:31;2.88;;;1.58;;
64075;SDS011;50327;51.328;12.324;2023-07-29T05:06:56;1.65;;;1.30;;
64075;SDS011;50327;51.328;12.324;2023-07-29T05:09:22;4.32;;;1.70;;
64075;SDS011;50327;51.328;12.324;2023-07-29T05:11:47;3.47;;;1.60;;
64075;SDS011;50327;51.328;12.324;2023-07-29T05:14:14;2.58;;;1.27;;
64075;SDS011;50327;51.328;12.324;2023-07-29T05:16:40;2.55;;;1.42;;
64075;SDS011;50327;51.328;12.324;2023-07-29T05:19:05;2.75;;;1.60;;
64075;SDS011;50327;51.328;12.324;2023-07-29T05:21:31;1.90;;;1.27;;
64075;SDS011;50327;51.328;12.324;2023-07-29T05:23:56;2.10;;;1.30;;
64075;SDS011;50327;51.328;12.324;2023-07-29T05:26:22;1.85;;;1.25;;
64075;SDS011;50327;51.328;12.324;2023-07-29T05:28:48;2.47;;;1.30;;
64075;SDS011;50327;51.328;12.324;2023-07-29T05:31:13;5.45;;;1.75;;
64075;SDS011;50327;51.328;12.324;2023-07-29T05:33:38;2.80;;;1.38;;
64075;SDS011;50327;51.328;12.324;2023-07-29T05:36:04;1.77;;;1.20;;
64075;SDS011;50327;51.328;12.324;2023-07-29T05:38:30;2.60;;;1.40;;
64075;SDS011;50327;51.328;12.324;2023-07-29T05:40:55;2.25;;;1.30;;
64075;SDS011;50327;51.328;12.324;2023-07-29T05:43:21;4.38;;;1.50;;
64075;SDS011;50327;51.328;12.324;2023-07-29T05:45:46;3.45;;;1.50;;
64075;SDS011;50327;51.328;12.324;2023-07-29T05:48:12;2.65;;;1.73;;
64075;SDS011;50327;51.328;12.324;2023-07-29T05:50:37;3.08;;;1.42;;
64075;SDS011;50327;51.328;12.324;2023-07-29T05:53:03;2.88;;;1.63;;
64075;SDS011;50327;51.328;12.324;2023-07-29T05:55:28;3.92;;;2.00;;
64075;SDS011;50327;51.328;12.324;2023-07-29T05:57:54;6.18;;;1.75;;
64075;SDS011;50327;51.328;12.324;2023-07-29T06:00:20;5.28;;;1.90;;
64075;SDS011;50327;51.328;12.324;2023-07-29T06:02:45;3.05;;;1.60;;
64075;SDS011;50327;51.328;12.324;2023-07-29T06:05:10;7.68;;;1.60;;
64075;SDS011;50327;51.328;12.324;2023-07-29T06:07:36;2.67;;;1.60;;
64075;SDS011;50327;51.328;12.324;2023-07-29T06:10:01;2.90;;;1.30;;
64075;SDS011;50327;51.328;12.324;2023-07-29T06:12:27;6.97;;;1.80;;
64075;SDS011;50327;51.328;12.324;2023-07-29T06:14:52;2.78;;;1.63;;
64075;SDS011;50327;51.328;12.324;2023-07-29T06:17:18;2.13;;;1.40;;
64075;SDS011;50327;51.328;12.324;2023-07-29T06:19:43;2.35;;;1.20;;
64075;SDS011;50327;51.328;12.324;2023-07-29T06:22:09;1.98;;;1.20;;
64075;SDS011;50327;51.328;12.324;2023-07-29T06:24:35;5.15;;;2.08;;
64075;SDS011;50327;51.328;12.324;2023-07-29T06:27:00;2.17;;;1.42;;
64075;SDS011;50327;51.328;12.324;2023-07-29T06:29:26;3.83;;;1.42;;
64075;SDS011;50327;51.328;12.324;2023-07-29T06:31:51;2.08;;;1.40;;
64075;SDS011;50327;51.328;12.324;2023-07-29T06:34:19;2.35;;;1.42;;
64075;SDS011;50327;51.328;12.324;2023-07-29T06:36:45;2.67;;;1.65;;
64075;SDS011;50327;51.328;12.324;2023-07-29T06:39:10;4.22;;;1.33;;
64075;SDS011;50327;51.328;12.324;2023-07-29T06:41:36;1.98;;;1.20;;
64075;SDS011;50327;51.328;12.324;2023-07-29T06:44:01;2.38;;;1.50;;
64075;SDS011;50327;51.328;12.324;2023-07-29T06:46:26;7.03;;;1.65;;
64075;SDS011;50327;51.328;12.324;2023-07-29T06:48:52;4.60;;;1.88;;
64075;SDS011;50327;51.328;12.324;2023-07-29T06:51:17;4.00;;;1.27;;
64075;SDS011;50327;51.328;12.324;2023-07-29T06:53:42;7.25;;;1.42;;
64075;SDS011;50327;51.328;12.324;2023-07-29T06:56:08;2.20;;;1.50;;
64075;SDS011;50327;51.328;12.324;2023-07-29T06:58:34;3.45;;;1.50;;
64075;SDS011;50327;51.328;12.324;2023-07-29T07:00:59;2.40;;;1.33;;
64075;SDS011;50327;51.328;12.324;2023-07-29T07:03:25;2.90;;;1.63;;
64075;SDS011;50327;51.328;12.324;2023-07-29T07:05:50;2.90;;;1.63;;
64075;SDS011;50327;51.328;12.324;2023-07-29T07:08:16;2.83;;;1.67;;
64075;SDS011;50327;51.328;12.324;2023-07-29T07:10:41;5.40;;;1.50;;
64075;SDS011;50327;51.328;12.324;2023-07-29T07:13:07;4.80;;;1.30;;
64075;SDS011;50327;51.328;12.324;2023-07-29T07:15:32;2.13;;;1.35;;
64075;SDS011;50327;51.328;12.324;2023-07-29T07:17:57;1.73;;;1.10;;
64075;SDS011;50327;51.328;12.324;2023-07-29T07:20:23;3.13;;;1.33;;
64075;SDS011;50327;51.328;12.324;2023-07-29T07:22:48;1.67;;;1.00;;
64075;SDS011;50327;51.328;12.324;2023-07-29T07:25:13;2.55;;;1.25;;
64075;SDS011;50327;51.328;12.324;2023-07-29T07:27:39;1.20;;;1.00;;
64075;SDS011;50327;51.328;12.324;2023-07-29T07:30:04;3.03;;;1.25;;
64075;SDS011;50327;51.328;12.324;2023-07-29T07:32:30;2.40;;;1.42;;
64075;SDS011;50327;51.328;12.324;2023-07-29T07:34:56;4.05;;;1.05;;
64075;SDS011;50327;51.328;12.324;2023-07-29T07:37:21;1.73;;;1.00;;
64075;SDS011;50327;51.328;12.324;2023-07-29T07:39:46;2.22;;;1.30;;
64075;SDS011;50327;51.328;12.324;2023-07-29T07:42:12;4.07;;;1.40;;
64075;SDS011;50327;51.328;12.324;2023-07-29T07:44:37;5.07;;;1.30;;
64075;SDS011;50327;51.328;12.324;2023-07-29T07:47:03;3.05;;;1.40;;
64075;SDS011;50327;51.328;12.324;2023-07-29T07:49:28;3.15;;;1.50;;
64075;SDS011;50327;51.328;12.324;2023-07-29T07:51:54;1.88;;;1.23;;
64075;SDS011;50327;51.328;12.324;2023-07-29T07:54:19;3.67;;;1.48;;
64075;SDS011;50327;51.328;12.324;2023-07-29T07:56:44;1.98;;;1.25;;
64075;SDS011;50327;51.328;12.324;2023-07-29T07:59:10;5.90;;;1.15;;
64075;SDS011;50327;51.328;12.324;2023-07-29T08:01:36;8.23;;;1.40;;
64075;SDS011;50327;51.328;12.324;2023-07-29T08:04:02;2.42;;;1.42;;
64075;SDS011;50327;51.328;12.324;2023-07-29T08:06:28;1.52;;;1.00;;
64075;SDS011;50327;51.328;12.324;2023-07-29T08:08:54;3.72;;;1.42;;
64075;SDS011;50327;51.328;12.324;2023-07-29T08:11:19;1.77;;;1.10;;
64075;SDS011;50327;51.328;12.324;2023-07-29T08:13:45;4.28;;;1.50;;
64075;SDS011;50327;51.328;12.324;2023-07-29T08:16:12;1.85;;;1.10;;
64075;SDS011;50327;51.328;12.324;2023-07-29T08:18:37;2.55;;;1.10;;
64075;SDS011;50327;51.328;12.324;2023-07-29T08:21:03;1.73;;;1.00;;
64075;SDS011;50327;51.328;12.324;2023-07-29T08:23:33;5.57;;;1.10;;
64075;SDS011;50327;51.328;12.324;2023-07-29T08:25:59;2.05;;;1.10;;
64075;SDS011;50327;51.328;12.324;2023-07-29T08:28:30;3.30;;;1.30;;
64075;SDS011;50327;51.328;12.324;2023-07-29T08:31:06;1.85;;;1.02;;
64075;SDS011;50327;51.328;12.324;2023-07-29T08:33:33;3.10;;;1.20;;
64075;SDS011;50327;51.328;12.324;2023-07-29T08:35:59;2.03;;;1.10;;
64075;SDS011;50327;51.328;12.324;2023-07-29T08:38:25;1.90;;;1.20;;
64075;SDS011;50327;51.328;12.324;2023-07-29T08:43:22;2.20;;;1.00;;
64075;SDS011;50327;51.328;12.324;2023-07-29T08:45:53;2.45;;;1.13;;
64075;SDS011;50327;51.328;12.324;2023-07-29T08:48:19;3.15;;;0.98;;
64075;SDS011;50327;51.328;12.324;2023-07-29T08:50:54;3.67;;;1.13;;
64075;SDS011;50327;51.328;12.324;2023-07-29T08:53:20;2.15;;;1.10;;
64075;SDS011;50327;51.328;12.324;2023-07-29T08:55:46;2.20;;;1.08;;
64075;SDS011;50327;51.328;12.324;2023-07-29T08:58:12;2.10;;;1.20;;
64075;SDS011;50327;51.328;12.324;2023-07-29T09:00:37;1.50;;;0.90;;
64075;SDS011;50327;51.328;12.324;2023-07-29T09:03:04;1.63;;;1.13;;
64075;SDS011;50327;51.328;12.324;2023-07-29T09:05:32;1.35;;;0.98;;
64075;SDS011;50327;51.328;12.324;2023-07-29T09:07:59;2.88;;;0.90;;
64075;SDS011;50327;51.328;12.324;2023-07-29T09:10:27;1.33;;;0.95;;
64075;SDS011;50327;51.328;12.324;2023-07-29T09:12:53;2.42;;;1.00;;
64075;SDS011;50327;51.328;12.324;2023-07-29T09:15:28;1.35;;;0.75;;
64075;SDS011;50327;51.328;12.324;2023-07-29T09:17:55;1.48;;;0.80;;
64075;SDS011;50327;51.328;12.324;2023-07-29T09:20:25;0.90;;;0.60;;
64075;SDS011;50327;51.328;12.324;2023-07-29T09:22:52;1.17;;;0.80;;
64075;SDS011;50327;51.328;12.324;2023-07-29T09:25:23;1.40;;;0.75;;
64075;SDS011;50327;51.328;12.324;2023-07-29T09:27:50;1.95;;;0.82;;
64075;SDS011;50327;51.328;12.324;2023-07-29T09:30:15;1.08;;;0.80;;
64075;SDS011;50327;51.328;12.324;2023-07-29T09:32:41;1.73;;;0.73;;
64075;SDS011;50327;51.328;12.324;2023-07-29T09:35:10;1.73;;;1.00;;
64075;SDS011;50327;51.328;12.324;2023-07-29T09:37:37;1.95;;;0.90;;
64075;SDS011;50327;51.328;12.324;2023-07-29T09:40:04;1.25;;;0.93;;
64075;SDS011;50327;51.328;12.324;2023-07-29T09:42:31;1.63;;;0.75;;
64075;SDS011;50327;51.328;12.324;2023-07-29T09:44:57;1.58;;;0.70;;
64075;SDS011;50327;51.328;12.324;2023-07-29T09:47:22;1.10;;;0.75;;
64075;SDS011;50327;51.328;12.324;2023-07-29T09:49:50;1.05;;;0.73;;
64075;SDS011;50327;51.328;12.324;2023-07-29T09:52:17;1.83;;;0.90;;
64075;SDS011;50327;51.328;12.324;2023-07-29T09:54:43;2.33;;;1.02;;
64075;SDS011;50327;51.328;12.324;2023-07-29T09:57:10;2.15;;;0.70;;
64075;SDS011;50327;51.328;12.324;2023-07-29T09:59:36;1.45;;;0.80;;
64075;SDS011;50327;51.328;12.324;2023-07-29T10:02:01;1.00;;;0.70;;
64075;SDS011;50327;51.328;12.324;2023-07-29T10:04:27;1.00;;;0.70;;
64075;SDS011;50327;51.328;12.324;2023-07-29T10:06:54;1.48;;;0.90;;
64075;SDS011;50327;51.328;12.324;2023-07-29T10:09:22;0.82;;;0.70;;
64075;SDS011;50327;51.328;12.324;2023-07-29T10:11:48;1.90;;;1.00;;
64075;SDS011;50327;51.328;12.324;2023-07-29T10:14:15;1.33;;;0.80;;
64075;SDS011;50327;51.328;12.324;2023-07-29T10:16:42;1.20;;;0.88;;
64075;SDS011;50327;51.328;12.324;2023-07-29T10:19:10;1.38;;;0.80;;
64075;SDS011;50327;51.328;12.324;2023-07-29T10:21:38;0.87;;;0.60;;
64075;SDS011;50327;51.328;12.324;2023-07-29T10:24:04;3.72;;;1.15;;
64075;SDS011;50327;51.328;12.324;2023-07-29T10:26:33;2.08;;;1.00;;
64075;SDS011;50327;51.328;12.324;2023-07-29T10:29:02;1.70;;;1.00;;
64075;SDS011;50327;51.328;12.324;2023-07-29T10:31:33;1.17;;;0.77;;
64075;SDS011;50327;51.328;12.324;2023-07-29T10:34:00;1.77;;;0.80;;
64075;SDS011;50327;51.328;12.324;2023-07-29T10:36:27;1.40;;;0.80;;
64075;SDS011;50327;51.328;12.324;2023-07-29T10:38:53;1.00;;;0.80;;
64075;SDS011;50327;51.328;12.324;2023-07-29T10:41:19;5.38;;;0.80;;
64075;SDS011;50327;51.328;12.324;2023-07-29T10:43:45;1.58;;;0.80;;
64075;SDS011;50327;51.328;12.324;2023-07-29T10:46:20;2.47;;;0.82;;
64075;SDS011;50327;51.328;12.324;2023-07-29T10:51:25;1.00;;;0.80;;
64075;SDS011;50327;51.328;12.324;2023-07-29T10:54:00;1.75;;;0.80;;
64075;SDS011;50327;51.328;12.324;2023-07-29T10:56:31;2.65;;;0.80;;
64075;SDS011;50327;51.328;12.324;2023-07-29T11:01:38;10.70;;;1.50;;
64075;SDS011;50327;51.328;12.324;2023-07-29T11:17:36;2.15;;;1.02;;
64075;SDS011;50327;51.328;12.324;2023-07-29T11:20:04;3.08;;;1.00;;
64075;SDS011;50327;51.328;12.324;2023-07-29T11:22:30;3.47;;;1.17;;
64075;SDS011;50327;51.328;12.324;2023-07-29T11:24:56;2.53;;;1.02;;
64075;SDS011;50327;51.328;12.324;2023-07-29T11:27:21;2.15;;;1.25;;
64075;SDS011;50327;51.328;12.324;2023-07-29T11:29:48;3.25;;;1.30;;
64075;SDS011;50327;51.328;12.324;2023-07-29T11:32:14;3.63;;;1.10;;
64075;SDS011;50327;51.328;12.324;2023-07-29T11:34:40;1.80;;;1.10;;
64075;SDS011;50327;51.328;12.324;2023-07-29T11:37:06;2.22;;;1.00;;
64075;SDS011;50327;51.328;12.324;2023-07-29T11:39:33;2.15;;;1.20;;
64075;SDS011;50327;51.328;12.324;2023-07-29T11:42:05;1.70;;;1.00;;
64075;SDS011;50327;51.328;12.324;2023-07-29T11:44:31;1.92;;;1.13;;
64075;SDS011;50327;51.328;12.324;2023-07-29T11:46:56;2.08;;;1.20;;
64075;SDS011;50327;51.328;12.324;2023-07-29T11:49:22;2.35;;;1.20;;
64075;SDS011;50327;51.328;12.324;2023-07-29T11:51:47;2.20;;;1.08;;
64075;SDS011;50327;51.328;12.324;2023-07-29T11:54:13;2.67;;;1.02;;
64075;SDS011;50327;51.328;12.324;2023-07-29T11:56:38;2.10;;;1.10;;
64075;SDS011;50327;51.328;12.324;2023-07-29T11:59:04;2.47;;;1.13;;
64075;SDS011;50327;51.328;12.324;2023-07-29T12:01:29;2.08;;;1.33;;
64075;SDS011;50327;51.328;12.324;2023-07-29T12:03:55;2.67;;;1.23;;
64075;SDS011;50327;51.328;12.324;2023-07-29T12:06:22;2.97;;;1.20;;
64075;SDS011;50327;51.328;12.324;2023-07-29T12:08:50;2.63;;;1.33;;
64075;SDS011;50327;51.328;12.324;2023-07-29T12:11:16;2.05;;;1.17;;
64075;SDS011;50327;51.328;12.324;2023-07-29T12:13:42;2.97;;;1.33;;
64075;SDS011;50327;51.328;12.324;2023-07-29T12:16:08;2.50;;;1.20;;
64075;SDS011;50327;51.328;12.324;2023-07-29T12:18:34;2.92;;;1.20;;
64075;SDS011;50327;51.328;12.324;2023-07-29T12:20:59;2.65;;;1.33;;
64075;SDS011;50327;51.328;12.324;2023-07-29T12:23:25;4.38;;;1.27;;
64075;SDS011;50327;51.328;12.324;2023-07-29T12:25:57;2.72;;;1.27;;
64075;SDS011;50327;51.328;12.324;2023-07-29T12:28:24;2.95;;;1.10;;
64075;SDS011;50327;51.328;12.324;2023-07-29T12:30:53;1.77;;;1.15;;
64075;SDS011;50327;51.328;12.324;2023-07-29T12:33:29;3.13;;;1.00;;
64075;SDS011;50327;51.328;12.324;2023-07-29T12:36:02;3.38;;;1.10;;
64075;SDS011;50327;51.328;12.324;2023-07-29T12:38:28;3.13;;;1.25;;
64075;SDS011;50327;51.328;12.324;2023-07-29T12:40:54;2.28;;;1.15;;
64075;SDS011;50327;51.328;12.324;2023-07-29T12:43:20;2.08;;;1.17;;
64075;SDS011;50327;51.328;12.324;2023-07-29T12:45:45;1.80;;;1.00;;
64075;SDS011;50327;51.328;12.324;2023-07-29T12:48:11;2.35;;;1.30;;
64075;SDS011;50327;51.328;12.324;2023-07-29T12:50:37;2.75;;;1.08;;
64075;SDS011;50327;51.328;12.324;2023-07-29T12:53:04;3.85;;;1.20;;
64075;SDS011;50327;51.328;12.324;2023-07-29T12:55:30;1.83;;;1.00;;
64075;SDS011;50327;51.328;12.324;2023-07-29T12:57:55;4.93;;;1.08;;
64075;SDS011;50327;51.328;12.324;2023-07-29T13:00:23;4.63;;;1.00;;
64075;SDS011;50327;51.328;12.324;2023-07-29T13:02:48;3.25;;;1.35;;
64075;SDS011;50327;51.328;12.324;2023-07-29T13:05:13;2.17;;;1.10;;
64075;SDS011;50327;51.328;12.324;2023-07-29T13:07:39;2.30;;;1.02;;
64075;SDS011;50327;51.328;12.324;2023-07-29T13:10:05;2.85;;;1.10;;
64075;SDS011;50327;51.328;12.324;2023-07-29T13:12:31;2.00;;;1.20;;
64075;SDS011;50327;51.328;12.324;2023-07-29T13:14:57;2.35;;;1.27;;
64075;SDS011;50327;51.328;12.324;2023-07-29T13:17:22;2.55;;;1.20;;
64075;SDS011;50327;51.328;12.324;2023-07-29T13:19:48;2.92;;;1.27;;
64075;SDS011;50327;51.328;12.324;2023-07-29T13:22:14;1.88;;;1.08;;
64075;SDS011;50327;51.328;12.324;2023-07-29T13:24:39;2.30;;;1.20;;
64075;SDS011;50327;51.328;12.324;2023-07-29T13:27:05;3.55;;;1.15;;
64075;SDS011;50327;51.328;12.324;2023-07-29T13:29:30;1.15;;;0.93;;
64075;SDS011;50327;51.328;12.324;2023-07-29T13:31:56;1.73;;;1.00;;
64075;SDS011;50327;51.328;12.324;2023-07-29T13:34:21;1.58;;;1.05;;
64075;SDS011;50327;51.328;12.324;2023-07-29T13:36:47;1.45;;;0.95;;
64075;SDS011;50327;51.328;12.324;2023-07-29T13:39:12;1.88;;;1.13;;
64075;SDS011;50327;51.328;12.324;2023-07-29T13:41:38;2.65;;;1.20;;
64075;SDS011;50327;51.328;12.324;2023-07-29T13:44:03;1.48;;;0.90;;
64075;SDS011;50327;51.328;12.324;2023-07-29T13:46:29;3.10;;;1.40;;
64075;SDS011;50327;51.328;12.324;2023-07-29T13:48:54;2.10;;;1.10;;
64075;SDS011;50327;51.328;12.324;2023-07-29T13:51:19;4.10;;;1.15;;
64075;SDS011;50327;51.328;12.324;2023-07-29T13:53:45;3.00;;;1.23;;
64075;SDS011;50327;51.328;12.324;2023-07-29T13:56:10;1.73;;;0.98;;
64075;SDS011;50327;51.328;12.324;2023-07-29T13:58:36;7.47;;;1.38;;
64075;SDS011;50327;51.328;12.324;2023-07-29T14:01:01;2.85;;;1.20;;
64075;SDS011;50327;51.328;12.324;2023-07-29T14:03:26;2.55;;;1.10;;
64075;SDS011;50327;51.328;12.324;2023-07-29T14:05:52;3.03;;;1.23;;
64075;SDS011;50327;51.328;12.324;2023-07-29T14:08:17;3.05;;;1.40;;
64075;SDS011;50327;51.328;12.324;2023-07-29T14:10:43;3.15;;;1.40;;
64075;SDS011;50327;51.328;12.324;2023-07-29T14:13:08;2.70;;;1.13;;
64075;SDS011;50327;51.328;12.324;2023-07-29T14:15:33;4.20;;;1.40;;
64075;SDS011;50327;51.328;12.324;2023-07-29T14:17:59;8.52;;;1.50;;
64075;SDS011;50327;51.328;12.324;2023-07-29T14:20:24;3.13;;;1.30;;
64075;SDS011;50327;51.328;12.324;2023-07-29T14:22:50;4.93;;;1.23;;
64075;SDS011;50327;51.328;12.324;2023-07-29T14:25:15;2.42;;;1.30;;
64075;SDS011;50327;51.328;12.324;2023-07-29T14:27:41;2.65;;;1.17;;
64075;SDS011;50327;51.328;12.324;2023-07-29T14:30:06;3.90;;;1.48;;
64075;SDS011;50327;51.328;12.324;2023-07-29T14:32:32;2.45;;;1.38;;
64075;SDS011;50327;51.328;12.324;2023-07-29T14:34:58;8.40;;;1.63;;
64075;SDS011;50327;51.328;12.324;2023-07-29T14:37:24;6.72;;;1.50;;
64075;SDS011;50327;51.328;12.324;2023-07-29T14:39:50;4.43;;;1.65;;
64075;SDS011;50327;51.328;12.324;2023-07-29T14:42:15;9.45;;;1.75;;
64075;SDS011;50327;51.328;12.324;2023-07-29T14:44:40;5.53;;;1.55;;
64075;SDS011;50327;51.328;12.324;2023-07-29T14:47:07;5.40;;;1.63;;
64075;SDS011;50327;51.328;12.324;2023-07-29T14:49:32;5.93;;;1.40;;
64075;SDS011;50327;51.328;12.324;2023-07-29T14:51:58;3.75;;;1.70;;
64075;SDS011;50327;51.328;12.324;2023-07-29T14:54:23;4.03;;;1.55;;
64075;SDS011;50327;51.328;12.324;2023-07-29T14:56:49;3.15;;;1.30;;
64075;SDS011;50327;51.328;12.324;2023-07-29T14:59:14;4.07;;;1.58;;
64075;SDS011;50327;51.328;12.324;2023-07-29T15:01:40;5.10;;;1.50;;
64075;SDS011;50327;51.328;12.324;2023-07-29T15:04:05;5.13;;;1.52;;